createdAt,value
2018-09-04T00:00:07.760Z,18.20
2018-09-04T00:02:36.837Z,18.20
2018-09-04T00:05:06.152Z,18.20
2018-09-04T00:07:35.282Z,18.20
2018-09-04T00:10:04.845Z,18.30
2018-09-04T00:12:33.963Z,18.30
2018-09-04T00:15:03.256Z,18.20
2018-09-04T00:17:32.356Z,18.10
2018-09-04T00:20:01.555Z,18.00
2018-09-04T00:22:30.697Z,17.90
2018-09-04T00:24:59.875Z,17.70
2018-09-04T00:27:29.004Z,17.80
2018-09-04T00:29:58.317Z,17.80
2018-09-04T00:32:27.489Z,17.80
2018-09-04T00:34:56.678Z,17.90
2018-09-04T00:37:25.885Z,17.90
2018-09-04T00:39:55.079Z,17.80
2018-09-04T00:42:24.189Z,17.60
2018-09-04T00:44:53.593Z,17.60
2018-09-04T00:47:22.726Z,17.70
2018-09-04T00:49:51.797Z,17.50
2018-09-04T00:52:20.920Z,17.50
2018-09-04T00:54:50.041Z,17.50
2018-09-04T00:57:19.183Z,17.50
2018-09-04T00:59:48.303Z,17.50
2018-09-04T01:02:17.520Z,17.60
2018-09-04T01:04:47.676Z,17.60
2018-09-04T01:07:17.353Z,17.20
2018-09-04T01:09:46.497Z,17.30
2018-09-04T01:12:15.647Z,17.30
2018-09-04T01:14:44.794Z,17.40
2018-09-04T01:17:13.918Z,17.50
2018-09-04T01:19:43.061Z,17.50
2018-09-04T01:22:12.231Z,17.50
2018-09-04T01:24:41.361Z,17.50
2018-09-04T01:27:10.518Z,17.30
2018-09-04T01:29:39.649Z,17.10
2018-09-04T01:32:08.796Z,17.00
2018-09-04T01:34:37.906Z,17.10
2018-09-04T01:37:07.140Z,17.00
2018-09-04T01:39:36.262Z,17.10
2018-09-04T01:42:05.406Z,17.00
2018-09-04T01:44:34.494Z,17.00
2018-09-04T01:47:03.730Z,17.00
2018-09-04T01:49:32.990Z,17.20
2018-09-04T01:52:02.101Z,17.20
2018-09-04T01:54:31.230Z,17.30
2018-09-04T01:57:00.383Z,17.20
2018-09-04T01:59:29.522Z,17.10
2018-09-04T02:01:58.721Z,17.20
2018-09-04T02:04:27.866Z,17.20
2018-09-04T02:06:57.066Z,17.10
2018-09-04T02:09:26.920Z,17.20
2018-09-04T02:11:56.503Z,17.20
2018-09-04T02:14:25.670Z,17.20
2018-09-04T02:16:54.945Z,17.00
2018-09-04T02:19:24.057Z,17.00
2018-09-04T02:21:53.176Z,17.00
2018-09-04T02:24:22.336Z,17.10
2018-09-04T02:26:51.474Z,17.10
2018-09-04T02:29:20.598Z,17.10
2018-09-04T02:31:49.802Z,16.80
2018-09-04T02:34:18.909Z,16.90
2018-09-04T02:36:48.076Z,17.10
2018-09-04T02:39:17.182Z,17.00
2018-09-04T02:41:46.302Z,17.00
2018-09-04T02:44:15.441Z,16.90
2018-09-04T02:46:44.558Z,16.80
2018-09-04T02:49:13.725Z,16.80
2018-09-04T02:51:42.860Z,16.70
2018-09-04T02:54:12.025Z,16.90
2018-09-04T02:56:41.143Z,17.00
2018-09-04T02:59:10.286Z,17.00
2018-09-04T03:01:39.421Z,16.90
2018-09-04T03:04:08.546Z,16.90
2018-09-04T03:06:37.685Z,16.80
2018-09-04T03:09:07.114Z,16.90
2018-09-04T03:11:36.306Z,17.00
2018-09-04T03:14:05.439Z,16.90
2018-09-04T03:16:34.591Z,17.00
2018-09-04T03:19:03.895Z,17.00
2018-09-04T03:21:33.026Z,16.90
2018-09-04T03:24:02.175Z,16.80
2018-09-04T03:26:31.932Z,16.80
2018-09-04T03:29:01.102Z,16.70
2018-09-04T03:31:30.225Z,16.80
2018-09-04T03:33:59.367Z,16.80
2018-09-04T03:36:28.522Z,16.70
2018-09-04T03:38:57.891Z,16.70
2018-09-04T03:41:27.059Z,16.60
2018-09-04T03:43:56.173Z,16.60
2018-09-04T03:46:25.298Z,16.70
2018-09-04T03:48:54.490Z,16.70
2018-09-04T03:51:23.634Z,16.70
2018-09-04T03:53:52.809Z,16.60
2018-09-04T03:56:21.937Z,16.40
2018-09-04T03:58:51.065Z,16.50
2018-09-04T04:01:20.206Z,16.70
2018-09-04T04:03:49.369Z,16.70
2018-09-04T04:06:18.511Z,16.70
2018-09-04T04:08:47.694Z,16.70
2018-09-04T04:11:16.828Z,16.50
2018-09-04T04:13:45.984Z,16.70
2018-09-04T04:16:15.121Z,16.70
2018-09-04T04:18:44.273Z,16.70
2018-09-04T04:21:13.413Z,16.70
2018-09-04T04:23:42.566Z,16.80
2018-09-04T04:26:11.701Z,16.80
2018-09-04T04:28:40.869Z,16.90
2018-09-04T04:31:10.016Z,17.00
2018-09-04T04:33:39.179Z,16.90
2018-09-04T04:36:08.389Z,17.00
2018-09-04T04:38:37.521Z,17.10
2018-09-04T04:41:06.681Z,17.10
2018-09-04T04:43:35.848Z,17.10
2018-09-04T04:46:05.053Z,17.00
2018-09-04T04:48:34.215Z,16.80
2018-09-04T04:51:03.375Z,16.80
2018-09-04T04:53:32.596Z,16.80
2018-09-04T04:56:01.722Z,16.80
2018-09-04T04:58:30.906Z,16.90
2018-09-04T05:01:00.109Z,16.90
2018-09-04T05:03:29.233Z,16.90
2018-09-04T05:05:58.381Z,17.00
2018-09-04T05:08:27.579Z,17.00
2018-09-04T05:10:57.624Z,17.10
2018-09-04T05:13:26.742Z,17.10
2018-09-04T05:15:55.911Z,17.00
2018-09-04T05:18:25.093Z,17.10
2018-09-04T05:20:54.403Z,17.10
2018-09-04T05:23:23.513Z,17.10
2018-09-04T05:25:52.623Z,17.10
2018-09-04T05:28:21.783Z,17.10
2018-09-04T05:30:50.891Z,17.10
2018-09-04T05:33:23.106Z,17.20
2018-09-04T05:35:54.967Z,17.30
2018-09-04T05:38:24.190Z,17.40
2018-09-04T05:40:53.336Z,17.30
2018-09-04T05:43:55.459Z,17.20
2018-09-04T05:46:29.887Z,17.40
2018-09-04T05:48:59.561Z,17.50
2018-09-04T05:51:28.705Z,17.50
2018-09-04T05:53:58.399Z,17.50
2018-09-04T05:56:27.613Z,17.50
2018-09-04T05:58:56.750Z,17.60
2018-09-04T06:01:25.938Z,17.70
2018-09-04T06:03:55.110Z,17.50
2018-09-04T06:06:24.247Z,17.50
2018-09-04T06:08:53.397Z,17.70
2018-09-04T06:11:22.575Z,17.90
2018-09-04T06:13:51.811Z,17.90
2018-09-04T06:16:20.855Z,18.10
2018-09-04T06:18:50.040Z,18.10
2018-09-04T06:21:19.183Z,18.10
2018-09-04T06:23:48.389Z,18.20
2018-09-04T06:26:18.134Z,18.40
2018-09-04T06:28:47.265Z,18.40
2018-09-04T06:31:16.434Z,18.50
2018-09-04T06:33:45.585Z,18.50
2018-09-04T06:36:14.693Z,18.60
2018-09-04T06:38:43.855Z,18.60
2018-09-04T06:41:13.032Z,18.60
2018-09-04T06:43:42.156Z,18.60
2018-09-04T06:46:11.302Z,18.60
2018-09-04T06:48:40.477Z,18.70
2018-09-04T06:51:09.669Z,18.80
2018-09-04T06:53:38.856Z,18.90
2018-09-04T06:56:07.994Z,19.10
2018-09-04T06:58:37.130Z,19.10
2018-09-04T07:01:08.139Z,19.10
2018-09-04T07:03:37.795Z,19.20
2018-09-04T07:06:07.356Z,19.30
2018-09-04T07:08:36.479Z,19.30
2018-09-04T07:11:05.801Z,19.30
2018-09-04T07:13:34.955Z,19.40
2018-09-04T07:16:04.315Z,19.60
2018-09-04T07:18:33.466Z,19.60
2018-09-04T07:21:02.610Z,19.60
2018-09-04T07:23:31.791Z,19.60
2018-09-04T07:26:00.963Z,19.70
2018-09-04T07:28:30.110Z,19.70
2018-09-04T07:30:59.274Z,19.90
2018-09-04T07:33:28.428Z,19.80
2018-09-04T07:35:57.573Z,20.00
2018-09-04T07:38:26.728Z,20.30
2018-09-04T07:40:55.823Z,20.50
2018-09-04T07:43:24.969Z,20.70
2018-09-04T07:45:54.105Z,20.60
2018-09-04T07:48:23.290Z,20.50
2018-09-04T07:50:52.464Z,20.50
2018-09-04T07:53:21.609Z,20.60
2018-09-04T07:55:50.772Z,20.90
2018-09-04T07:58:19.906Z,21.00
2018-09-04T08:00:49.102Z,21.60
2018-09-04T08:03:18.231Z,22.70
2018-09-04T08:05:47.384Z,24.00
2018-09-04T08:08:16.509Z,25.20
2018-09-04T08:10:45.721Z,25.50
2018-09-04T08:13:14.851Z,26.40
2018-09-04T08:15:44.023Z,27.20
2018-09-04T08:18:13.161Z,27.80
2018-09-04T08:20:42.334Z,27.90
2018-09-04T08:23:11.607Z,28.00
2018-09-04T08:25:40.702Z,27.40
2018-09-04T08:28:09.889Z,26.60
2018-09-04T08:30:39.022Z,25.50
2018-09-04T08:33:08.199Z,24.90
2018-09-04T08:35:37.351Z,24.40
2018-09-04T08:38:06.523Z,24.00
2018-09-04T08:40:35.787Z,23.70
2018-09-04T08:43:04.914Z,23.80
2018-09-04T08:45:34.079Z,23.80
2018-09-04T08:48:07.418Z,23.80
2018-09-04T08:50:36.680Z,23.60
2018-09-04T08:53:05.765Z,23.20
2018-09-04T08:55:34.905Z,23.10
2018-09-04T08:58:04.078Z,23.00
2018-09-04T09:00:33.482Z,22.70
2018-09-04T09:03:02.711Z,22.40
2018-09-04T09:05:31.918Z,22.40
2018-09-04T09:08:00.999Z,22.20
2018-09-04T09:10:30.234Z,22.30
2018-09-04T09:12:59.401Z,22.20
2018-09-04T09:15:28.548Z,22.30
2018-09-04T09:17:57.694Z,22.60
2018-09-04T09:20:26.885Z,22.80
2018-09-04T09:22:56.093Z,23.00
2018-09-04T09:25:25.192Z,23.10
2018-09-04T09:27:55.386Z,22.90
2018-09-04T09:30:24.544Z,22.50
2018-09-04T09:32:53.666Z,22.40
2018-09-04T09:35:22.958Z,22.40
2018-09-04T09:37:52.127Z,22.70
2018-09-04T09:40:21.381Z,22.90
2018-09-04T09:42:50.560Z,22.90
2018-09-04T09:45:19.703Z,22.90
2018-09-04T09:47:50.731Z,23.00
2018-09-04T09:50:20.941Z,22.90
2018-09-04T09:52:50.223Z,23.00
2018-09-04T09:55:19.290Z,23.10
2018-09-04T09:57:48.435Z,23.10
2018-09-04T10:00:25.499Z,23.00
2018-09-04T10:03:00.414Z,23.00
2018-09-04T10:05:29.543Z,22.90
2018-09-04T10:07:59.847Z,22.90
2018-09-04T10:10:33.510Z,23.00
2018-09-04T10:13:05.592Z,23.10
2018-09-04T10:15:34.811Z,22.80
2018-09-04T10:18:04.094Z,23.00
2018-09-04T10:20:33.253Z,22.90
2018-09-04T10:23:03.231Z,23.20
2018-09-04T10:25:32.492Z,23.30
2018-09-04T10:28:01.711Z,23.00
2018-09-04T10:30:31.020Z,23.20
2018-09-04T10:33:00.225Z,23.40
2018-09-04T10:35:29.456Z,23.60
2018-09-04T10:37:59.555Z,23.60
2018-09-04T10:40:35.749Z,23.70
2018-09-04T10:43:10.625Z,23.80
2018-09-04T10:45:45.264Z,23.70
2018-09-04T10:48:15.889Z,23.70
2018-09-04T10:50:45.066Z,23.60
2018-09-04T10:53:14.195Z,23.50
2018-09-04T10:55:47.161Z,23.50
2018-09-04T10:58:16.435Z,23.30
2018-09-04T11:00:45.673Z,23.40
2018-09-04T11:03:14.842Z,23.50
2018-09-04T11:05:44.155Z,23.40
2018-09-04T11:08:13.307Z,23.30
2018-09-04T11:10:42.507Z,23.30
2018-09-04T11:13:11.719Z,23.10
2018-09-04T11:15:41.944Z,23.00
2018-09-04T11:18:11.440Z,23.10
2018-09-04T11:20:40.681Z,23.00
2018-09-04T11:23:09.822Z,22.90
2018-09-04T11:25:38.967Z,22.90
2018-09-04T11:28:08.188Z,23.00
2018-09-04T11:30:37.868Z,23.20
2018-09-04T11:33:07.367Z,23.40
2018-09-04T11:35:36.626Z,23.40
2018-09-04T11:38:06.825Z,23.50
2018-09-04T11:40:36.048Z,23.70
2018-09-04T11:43:05.961Z,23.80
2018-09-04T11:45:40.605Z,23.70
2018-09-04T11:48:38.578Z,24.00
2018-09-04T11:51:09.942Z,24.10
2018-09-04T11:53:39.229Z,24.20
2018-09-04T11:56:08.447Z,24.30
2018-09-04T11:58:37.619Z,24.20
2018-09-04T12:01:12.152Z,24.40
2018-09-04T12:03:41.610Z,24.40
2018-09-04T12:06:10.793Z,24.40
2018-09-04T12:08:39.927Z,24.20
2018-09-04T12:11:10.274Z,24.00
2018-09-04T12:13:39.402Z,24.00
2018-09-04T12:16:08.565Z,23.80
2018-09-04T12:18:37.799Z,23.80
2018-09-04T12:21:11.223Z,23.70
2018-09-04T12:23:40.611Z,23.60
2018-09-04T12:26:11.034Z,23.80
2018-09-04T12:28:40.226Z,23.70
2018-09-04T12:31:10.217Z,24.00
2018-09-04T12:33:39.353Z,24.10
2018-09-04T12:36:08.542Z,24.00
2018-09-04T12:38:39.661Z,23.90
2018-09-04T12:41:14.145Z,23.90
2018-09-04T12:43:43.575Z,23.50
2018-09-04T12:46:12.798Z,23.50
2018-09-04T12:48:50.404Z,23.60
2018-09-04T12:51:19.630Z,23.70
2018-09-04T12:53:48.789Z,23.60
2018-09-04T12:56:18.219Z,23.50
2018-09-04T12:58:47.482Z,23.30
2018-09-04T13:01:16.656Z,23.20
2018-09-04T13:03:45.799Z,23.10
2018-09-04T13:06:14.945Z,23.10
2018-09-04T13:08:44.122Z,23.10
2018-09-04T13:11:13.251Z,23.10
2018-09-04T13:13:42.444Z,23.20
2018-09-04T13:16:11.711Z,23.20
2018-09-04T13:18:40.861Z,23.20
2018-09-04T13:21:09.991Z,23.20
2018-09-04T13:23:39.179Z,23.30
2018-09-04T13:26:08.374Z,23.30
2018-09-04T13:28:37.621Z,23.30
2018-09-04T13:31:06.839Z,23.30
2018-09-04T13:33:35.966Z,23.40
2018-09-04T13:36:05.138Z,23.40
2018-09-04T13:38:34.437Z,23.60
2018-09-04T13:41:08.586Z,23.60
2018-09-04T13:43:39.036Z,23.70
2018-09-04T13:46:08.238Z,23.70
2018-09-04T13:48:37.460Z,23.70
2018-09-04T13:51:06.637Z,23.70
2018-09-04T13:53:35.822Z,23.60
2018-09-04T13:56:05.008Z,23.50
2018-09-04T13:58:34.135Z,23.40
2018-09-04T14:01:03.253Z,23.50
2018-09-04T14:03:32.386Z,23.60
2018-09-04T14:06:01.544Z,23.60
2018-09-04T14:08:30.678Z,23.60
2018-09-04T14:10:59.875Z,23.60
2018-09-04T14:13:29.035Z,23.70
2018-09-04T14:16:01.079Z,23.70
2018-09-04T14:18:30.201Z,23.70
2018-09-04T14:20:59.397Z,23.80
2018-09-04T14:23:28.572Z,23.90
2018-09-04T14:25:57.658Z,23.80
2018-09-04T14:28:43.965Z,23.90
2018-09-04T14:30:58.131Z,23.90
2018-09-04T14:33:27.339Z,23.70
2018-09-04T14:35:56.614Z,23.90
2018-09-04T14:38:25.739Z,23.90
2018-09-04T14:40:54.893Z,24.00
2018-09-04T14:43:24.065Z,24.00
2018-09-04T14:45:53.231Z,23.80
2018-09-04T14:48:29.078Z,23.90
2018-09-04T14:50:58.230Z,23.90
2018-09-04T14:53:27.343Z,23.80
2018-09-04T14:55:56.894Z,23.90
2018-09-04T14:58:26.021Z,23.90
2018-09-04T15:00:55.169Z,24.00
2018-09-04T15:03:24.417Z,23.80
2018-09-04T15:05:53.660Z,23.70
2018-09-04T15:08:22.781Z,23.80
2018-09-04T15:10:51.969Z,23.70
2018-09-04T15:13:21.068Z,23.70
2018-09-04T15:15:50.281Z,23.70
2018-09-04T15:18:19.418Z,23.70
2018-09-04T15:20:48.602Z,23.70
2018-09-04T15:23:17.713Z,23.70
2018-09-04T15:25:46.886Z,23.70
2018-09-04T15:28:16.211Z,23.70
2018-09-04T15:30:45.392Z,23.70
2018-09-04T15:33:14.685Z,23.80
2018-09-04T15:35:43.825Z,23.70
2018-09-04T15:38:12.994Z,23.70
2018-09-04T15:40:42.178Z,23.80
2018-09-04T15:43:11.342Z,23.90
2018-09-04T15:45:40.546Z,24.00
2018-09-04T15:48:09.687Z,23.90
2018-09-04T15:50:38.855Z,23.90
2018-09-04T15:53:08.034Z,24.00
2018-09-04T15:55:37.211Z,24.00
2018-09-04T15:58:06.422Z,24.10
2018-09-04T16:00:35.541Z,24.20
2018-09-04T16:03:04.759Z,24.10
2018-09-04T16:05:33.931Z,24.00
2018-09-04T16:08:03.143Z,24.00
2018-09-04T16:10:32.317Z,24.00
2018-09-04T16:13:01.517Z,23.90
2018-09-04T16:15:30.665Z,23.80
2018-09-04T16:17:59.785Z,23.70
2018-09-04T16:20:29.066Z,23.60
2018-09-04T16:22:58.311Z,23.60
2018-09-04T16:25:27.478Z,23.60
2018-09-04T16:27:56.606Z,23.50
2018-09-04T16:30:25.770Z,23.40
2018-09-04T16:32:54.931Z,23.30
2018-09-04T16:35:24.104Z,23.30
2018-09-04T16:37:53.219Z,23.40
2018-09-04T16:40:22.364Z,23.40
2018-09-04T16:42:51.520Z,23.40
2018-09-04T16:45:20.729Z,23.30
2018-09-04T16:47:49.899Z,23.30
2018-09-04T16:50:19.086Z,23.30
2018-09-04T16:52:48.221Z,23.30
2018-09-04T16:55:17.381Z,23.30
2018-09-04T16:57:46.587Z,23.30
2018-09-04T17:00:15.734Z,23.30
2018-09-04T17:02:44.950Z,23.30
2018-09-04T17:05:14.269Z,23.30
2018-09-04T17:07:44.249Z,23.30
2018-09-04T17:10:13.413Z,23.30
2018-09-04T17:12:42.661Z,23.30
2018-09-04T17:15:11.844Z,23.20
2018-09-04T17:17:41.033Z,23.20
2018-09-04T17:20:10.158Z,23.20
2018-09-04T17:22:39.289Z,23.20
2018-09-04T17:25:08.453Z,23.10
2018-09-04T17:27:37.913Z,23.10
2018-09-04T17:30:07.234Z,23.10
2018-09-04T17:32:36.434Z,23.00
2018-09-04T17:35:05.942Z,22.90
2018-09-04T17:37:35.151Z,22.80
2018-09-04T17:40:04.470Z,22.80
2018-09-04T17:42:33.683Z,22.80
2018-09-04T17:45:02.841Z,22.70
2018-09-04T17:47:32.210Z,22.70
2018-09-04T17:50:01.501Z,22.70
2018-09-04T17:52:30.669Z,22.60
2018-09-04T17:55:00.043Z,22.60
2018-09-04T17:57:29.311Z,22.50
2018-09-04T17:59:58.611Z,22.50
2018-09-04T18:02:27.853Z,22.50
2018-09-04T18:04:57.108Z,22.40
2018-09-04T18:07:26.330Z,22.40
2018-09-04T18:09:55.813Z,22.40
2018-09-04T18:12:25.200Z,22.40
2018-09-04T18:14:54.598Z,22.30
2018-09-04T18:17:23.864Z,22.30
2018-09-04T18:19:53.127Z,22.30
2018-09-04T18:22:22.390Z,22.20
2018-09-04T18:24:51.807Z,22.20
2018-09-04T18:27:20.998Z,22.20
2018-09-04T18:29:50.234Z,22.10
2018-09-04T18:32:19.545Z,22.10
2018-09-04T18:34:48.716Z,22.00
2018-09-04T18:37:17.958Z,22.00
2018-09-04T18:39:47.135Z,22.00
2018-09-04T18:42:16.422Z,21.90
2018-09-04T18:44:45.561Z,21.90
2018-09-04T18:47:14.706Z,21.90
2018-09-04T18:49:43.980Z,21.80
2018-09-04T18:52:13.174Z,21.80
2018-09-04T18:54:42.309Z,21.80
2018-09-04T18:57:11.478Z,21.80
2018-09-04T18:59:40.865Z,21.70
2018-09-04T19:02:10.247Z,21.70
2018-09-04T19:04:39.568Z,21.60
2018-09-04T19:07:08.859Z,21.60
2018-09-04T19:09:38.239Z,21.60
2018-09-04T19:12:07.670Z,21.60
2018-09-04T19:14:37.045Z,21.60
2018-09-04T19:17:06.570Z,21.60
2018-09-04T19:19:35.933Z,21.70
2018-09-04T19:22:05.445Z,21.60
2018-09-04T19:24:34.745Z,21.70
2018-09-04T19:27:04.149Z,21.80
2018-09-04T19:29:33.459Z,21.80
2018-09-04T19:32:03.112Z,21.70
2018-09-04T19:34:32.434Z,21.70
2018-09-04T19:37:01.738Z,21.70
2018-09-04T19:39:31.075Z,21.70
2018-09-04T19:42:00.393Z,21.80
2018-09-04T19:44:29.731Z,21.70
2018-09-04T19:46:58.948Z,21.70
2018-09-04T19:49:28.240Z,21.70
2018-09-04T19:51:57.413Z,21.70
2018-09-04T19:54:26.627Z,21.80
2018-09-04T19:56:55.859Z,21.80
2018-09-04T19:59:25.082Z,21.80
2018-09-04T20:01:54.300Z,21.60
2018-09-04T20:04:23.507Z,21.50
2018-09-04T20:06:52.715Z,21.50
2018-09-04T20:09:21.911Z,21.60
2018-09-04T20:11:51.093Z,21.60
2018-09-04T20:14:20.307Z,21.50
2018-09-04T20:16:49.498Z,21.50
2018-09-04T20:19:18.693Z,21.50
2018-09-04T20:21:47.891Z,21.40
2018-09-04T20:24:17.042Z,21.30
2018-09-04T20:26:46.222Z,21.30
2018-09-04T20:29:15.426Z,21.30
2018-09-04T20:31:44.577Z,21.30
2018-09-04T20:34:13.732Z,21.40
2018-09-04T20:36:42.910Z,21.30
2018-09-04T20:39:12.186Z,21.30
2018-09-04T20:41:41.413Z,21.20
2018-09-04T20:44:10.906Z,21.20
2018-09-04T20:46:40.077Z,21.20
2018-09-04T20:49:09.236Z,21.20
2018-09-04T20:51:38.455Z,21.20
2018-09-04T20:54:07.654Z,21.20
2018-09-04T20:56:36.841Z,21.20
2018-09-04T20:59:17.201Z,21.10
2018-09-04T21:01:57.767Z,21.10
2018-09-04T21:04:38.269Z,21.10
2018-09-04T21:07:10.601Z,21.10
2018-09-04T21:09:45.061Z,21.00
2018-09-04T21:12:14.332Z,21.00
2018-09-04T21:14:43.588Z,20.90
2018-09-04T21:17:12.867Z,20.90
2018-09-04T21:19:42.231Z,21.00
2018-09-04T21:22:11.533Z,21.10
2018-09-04T21:24:40.814Z,21.00
2018-09-04T21:27:10.298Z,21.00
2018-09-04T21:29:39.526Z,21.00
2018-09-04T21:32:08.868Z,20.90
2018-09-04T21:34:38.093Z,21.00
2018-09-04T21:37:07.338Z,21.00
2018-09-04T21:39:36.600Z,20.90
2018-09-04T21:42:05.894Z,20.90
2018-09-04T21:44:35.106Z,20.90
2018-09-04T21:47:04.550Z,20.70
2018-09-04T21:49:33.848Z,20.60
2018-09-04T21:52:03.069Z,20.50
2018-09-04T21:54:32.356Z,20.70
2018-09-04T21:57:01.643Z,20.70
2018-09-04T21:59:30.905Z,20.50
2018-09-04T22:02:00.126Z,20.60
2018-09-04T22:04:29.485Z,20.70
2018-09-04T22:06:58.924Z,20.70
2018-09-04T22:09:28.206Z,20.40
2018-09-04T22:11:57.677Z,20.40
2018-09-04T22:14:27.073Z,20.50
2018-09-04T22:16:56.293Z,20.30
2018-09-04T22:19:25.591Z,20.10
2018-09-04T22:21:54.889Z,20.10
2018-09-04T22:24:24.047Z,19.90
2018-09-04T22:26:53.279Z,19.80
2018-09-04T22:29:22.393Z,19.80
2018-09-04T22:31:51.594Z,19.90
2018-09-04T22:34:20.725Z,19.90
2018-09-04T22:36:49.887Z,19.90
2018-09-04T22:39:19.095Z,19.90
2018-09-04T22:41:48.223Z,19.80
2018-09-04T22:44:17.417Z,19.90
2018-09-04T22:46:46.630Z,19.90
2018-09-04T22:49:15.847Z,20.00
2018-09-04T22:51:45.049Z,19.90
2018-09-04T22:54:14.210Z,19.90
2018-09-04T22:56:43.396Z,20.00
2018-09-04T22:59:12.541Z,20.00
2018-09-04T23:01:41.710Z,20.00
2018-09-04T23:04:10.813Z,19.80
2018-09-04T23:06:39.987Z,19.60
2018-09-04T23:09:09.170Z,19.50
2018-09-04T23:11:38.421Z,19.50
2018-09-04T23:14:07.619Z,19.30
2018-09-04T23:16:36.770Z,19.40
2018-09-04T23:19:06.210Z,19.20
2018-09-04T23:21:35.379Z,19.30
2018-09-04T23:24:04.603Z,19.30
2018-09-04T23:26:33.778Z,19.30
2018-09-04T23:29:03.063Z,19.10
2018-09-04T23:31:32.221Z,19.10
2018-09-04T23:34:01.396Z,19.10
2018-09-04T23:36:30.536Z,19.20
2018-09-04T23:38:59.726Z,19.20
2018-09-04T23:41:28.962Z,19.10
2018-09-04T23:43:58.095Z,19.10
2018-09-04T23:46:27.224Z,19.00
2018-09-04T23:48:56.391Z,18.80
2018-09-04T23:51:25.541Z,18.90
2018-09-04T23:53:54.688Z,19.00
2018-09-04T23:56:23.916Z,18.90
2018-09-04T23:58:53.042Z,18.80
